LTCN

Kahramanmaraş Airport

Kahramanmaraş, Turkey
TAF LTCN 260140Z 2603/2612 VRB02KT 9999 SCT040
Issued Valid From Valid To
Apr-26 @ 01:40 UTC
(2 hours ago)
Apr-26 @ 03:00 UTC
(52 minutes ago)
Apr-26 @ 12:00 UTC
(in 8 hours)
Apr-26 @ 03:00 to Apr-26 @ 12:00
TAF LTCN 260140Z 2603/2612 VRB02KT 9999 SCT040
Wind Visibility Clouds
Variable at 2 knots 10,000+ meters
  • Scattered at 4,000' AGL
TAF LTCN 260140Z 2603/2612 VRB02KT 9999 SCT040
Issued Apr-26 @ 01:40 UTC
(2 hours ago)
Valid From Apr-26 @ 03:00 UTC
(52 minutes ago)
Valid To Apr-26 @ 12:00 UTC
(in 8 hours)
Apr-26 @ 03:00 - Apr-26 @ 12:00
Wind Visibility
Variable at 2 knots 10,000+ meters
Clouds
  • Scattered at 4,000' AGL